createdAt,value
2023-03-24T00:00:02.842Z,97668.25
2023-03-24T00:02:29.396Z,97666.03
2023-03-24T00:04:58.722Z,97656.31
2023-03-24T00:07:26.096Z,97655.34
2023-03-24T00:09:54.047Z,97659.28
2023-03-24T00:12:20.620Z,97663.16
2023-03-24T00:14:47.327Z,97659.59
2023-03-24T00:17:14.172Z,97654.31
2023-03-24T00:19:41.304Z,97658.44
2023-03-24T00:22:09.376Z,97655.28
2023-03-24T00:24:35.925Z,97653.31
2023-03-24T00:27:03.462Z,97642.53
2023-03-24T00:29:30.005Z,97648.84
2023-03-24T00:31:56.727Z,97657.53
2023-03-24T00:34:23.633Z,97654.09
2023-03-24T00:36:51.592Z,97649.00
2023-03-24T00:39:19.606Z,97660.78
2023-03-24T00:41:48.031Z,97661.19
2023-03-24T00:44:19.553Z,97656.09
2023-03-24T00:46:55.497Z,97658.44
2023-03-24T00:49:42.259Z,97657.03
2023-03-24T00:52:10.645Z,97650.66
2023-03-24T00:54:38.723Z,97649.50
2023-03-24T00:57:06.348Z,97640.94
2023-03-24T00:59:38.068Z,97644.91
2023-03-24T01:02:05.216Z,97640.44
2023-03-24T01:04:31.821Z,97635.81
2023-03-24T01:06:58.436Z,97640.84
2023-03-24T01:09:24.918Z,97649.56
2023-03-24T01:11:52.421Z,97643.34
2023-03-24T01:14:19.624Z,97652.19
2023-03-24T01:16:46.390Z,97638.94
2023-03-24T01:19:12.935Z,97642.44
2023-03-24T01:21:40.192Z,97643.38
2023-03-24T01:24:07.746Z,97632.66
2023-03-24T01:26:34.539Z,97635.66
2023-03-24T01:29:01.131Z,97630.31
2023-03-24T01:31:27.704Z,97635.72
2023-03-24T01:33:54.285Z,97623.09
2023-03-24T01:36:20.836Z,97629.94
2023-03-24T01:38:47.305Z,97630.31
2023-03-24T01:41:13.808Z,97632.84
2023-03-24T01:43:40.328Z,97632.75
2023-03-24T01:46:15.827Z,97635.81
2023-03-24T01:49:00.052Z,97641.84
2023-03-24T01:51:43.013Z,97640.53
2023-03-24T01:54:22.108Z,97632.44
2023-03-24T01:57:20.779Z,97627.31
2023-03-24T01:59:50.022Z,97633.53
2023-03-24T02:02:17.646Z,97617.06
2023-03-24T02:04:48.397Z,97610.53
2023-03-24T02:07:36.561Z,97600.84
2023-03-24T02:10:08.267Z,97610.22
2023-03-24T02:12:35.406Z,97575.47
2023-03-24T02:15:03.182Z,97583.88
2023-03-24T02:17:57.553Z,97582.25
2023-03-24T02:20:32.628Z,97571.38
2023-03-24T02:23:35.652Z,97570.16
2023-03-24T02:26:39.712Z,97557.81
2023-03-24T02:29:35.656Z,97555.53
2023-03-24T02:32:12.713Z,97557.47
2023-03-24T02:35:10.541Z,97547.50
2023-03-24T02:37:53.354Z,97550.66
2023-03-24T02:40:25.555Z,97554.50
2023-03-24T02:43:37.763Z,97541.78
2023-03-24T02:46:19.652Z,97542.97
2023-03-24T02:48:58.857Z,97542.75
2023-03-24T02:51:55.583Z,97537.78
2023-03-24T02:54:44.416Z,97550.66
2023-03-24T02:57:28.464Z,97546.03
2023-03-24T03:00:09.534Z,97543.03
2023-03-24T03:02:46.054Z,97547.31
2023-03-24T03:05:24.087Z,97556.66
2023-03-24T03:07:54.336Z,97554.38
2023-03-24T03:10:25.603Z,97555.47
2023-03-24T03:12:56.618Z,97549.56
2023-03-24T03:15:27.970Z,97542.34
2023-03-24T03:18:05.893Z,97554.19
2023-03-24T03:20:38.961Z,97559.44
2023-03-24T03:23:11.554Z,97562.34
2023-03-24T03:25:43.244Z,97562.00
2023-03-24T03:28:12.046Z,97570.47
2023-03-24T03:30:45.256Z,97568.44
2023-03-24T03:33:29.338Z,97583.13
2023-03-24T03:36:28.548Z,97589.56
2023-03-24T03:39:37.060Z,97603.81
2023-03-24T03:42:05.160Z,97606.38
2023-03-24T03:44:31.928Z,97634.09
2023-03-24T03:46:58.799Z,97631.31
2023-03-24T03:49:25.823Z,97636.59
2023-03-24T03:51:52.567Z,97648.75
2023-03-24T03:54:20.187Z,97637.72
2023-03-24T03:56:49.612Z,97650.19
2023-03-24T03:59:34.062Z,97653.84
2023-03-24T04:02:37.132Z,97659.19
2023-03-24T04:05:21.759Z,97655.72
2023-03-24T04:08:06.248Z,97650.88
2023-03-24T04:11:06.787Z,97659.56
2023-03-24T04:13:54.497Z,97665.47
2023-03-24T04:16:46.742Z,97664.47
2023-03-24T04:19:39.098Z,97672.44
2023-03-24T04:22:38.380Z,97667.53
2023-03-24T04:25:14.276Z,97672.75
2023-03-24T04:27:51.231Z,97674.75
2023-03-24T04:30:46.464Z,97667.75
2023-03-24T04:33:28.838Z,97671.91
2023-03-24T04:36:06.612Z,97675.34
2023-03-24T04:38:36.429Z,97673.03
2023-03-24T04:41:05.483Z,97672.94
2023-03-24T04:43:36.842Z,97667.50
2023-03-24T04:46:05.544Z,97669.22
2023-03-24T04:48:32.129Z,97673.94
2023-03-24T04:51:00.727Z,97670.50
2023-03-24T04:53:27.965Z,97677.53
2023-03-24T04:56:01.482Z,97683.56
2023-03-24T04:58:28.183Z,97679.31
2023-03-24T05:00:56.555Z,97674.38
2023-03-24T05:03:23.282Z,97674.47
2023-03-24T05:05:50.502Z,97663.22
2023-03-24T05:08:17.950Z,97668.97
2023-03-24T05:10:45.150Z,97653.44
2023-03-24T05:13:12.760Z,97653.31
2023-03-24T05:15:40.179Z,97659.91
2023-03-24T05:18:07.305Z,97644.50
2023-03-24T05:20:33.838Z,97645.53
2023-03-24T05:23:01.558Z,97647.97
2023-03-24T05:25:28.054Z,97643.50
2023-03-24T05:27:54.657Z,97640.72
2023-03-24T05:30:21.630Z,97638.97
2023-03-24T05:32:48.419Z,97646.00
2023-03-24T05:35:15.033Z,97652.78
2023-03-24T05:37:41.480Z,97652.94
2023-03-24T05:40:08.601Z,97651.72
2023-03-24T05:42:35.429Z,97663.13
2023-03-24T05:45:02.035Z,97662.97
2023-03-24T05:47:28.539Z,97679.78
2023-03-24T05:49:55.197Z,97682.56
2023-03-24T05:52:22.487Z,97687.16
2023-03-24T05:54:52.183Z,97693.00
2023-03-24T05:57:19.751Z,97691.34
2023-03-24T05:59:46.263Z,97697.34
2023-03-24T06:02:12.878Z,97702.75
2023-03-24T06:04:39.452Z,97702.22
2023-03-24T06:07:05.989Z,97704.34
2023-03-24T06:09:40.877Z,97711.38
2023-03-24T06:12:08.580Z,97711.25
2023-03-24T06:14:35.567Z,97718.94
2023-03-24T06:17:02.203Z,97723.53
2023-03-24T06:19:30.927Z,97738.53
2023-03-24T06:22:02.810Z,97748.28
2023-03-24T06:24:29.904Z,97746.66
2023-03-24T06:27:02.068Z,97770.06
2023-03-24T06:29:31.692Z,97757.19
2023-03-24T06:31:58.188Z,97765.38
2023-03-24T06:34:25.306Z,97766.03
2023-03-24T06:36:52.583Z,97769.44
2023-03-24T06:39:19.228Z,97771.84
2023-03-24T06:41:45.747Z,97772.66
2023-03-24T06:44:12.313Z,97768.91
2023-03-24T06:46:38.986Z,97770.50
2023-03-24T06:49:05.796Z,97772.66
2023-03-24T06:51:32.878Z,97772.06
2023-03-24T06:53:59.387Z,97775.88
2023-03-24T06:56:27.141Z,97776.44
2023-03-24T06:58:53.907Z,97783.69
2023-03-24T07:01:20.716Z,97781.56
2023-03-24T07:03:48.373Z,97791.81
2023-03-24T07:06:15.052Z,97797.56
2023-03-24T07:08:41.563Z,97802.47
2023-03-24T07:11:10.197Z,97816.88
2023-03-24T07:13:36.948Z,97817.97
2023-03-24T07:16:03.902Z,97814.97
2023-03-24T07:18:30.488Z,97795.66
2023-03-24T07:20:57.002Z,97806.75
2023-03-24T07:23:25.407Z,97807.53
2023-03-24T07:25:52.060Z,97815.88
2023-03-24T07:28:18.667Z,97830.44
2023-03-24T07:30:45.460Z,97831.72
2023-03-24T07:33:12.488Z,97833.53
2023-03-24T07:35:40.169Z,97844.50
2023-03-24T07:38:06.829Z,97857.50
2023-03-24T07:40:35.071Z,97850.25
2023-03-24T07:43:05.929Z,97860.22
2023-03-24T07:45:33.069Z,97855.91
2023-03-24T07:48:02.236Z,97859.19
2023-03-24T07:50:29.925Z,97867.06
2023-03-24T07:52:59.340Z,97872.25
2023-03-24T07:55:27.082Z,97875.34
2023-03-24T07:57:53.637Z,97878.56
2023-03-24T08:00:21.132Z,97886.41
2023-03-24T08:02:52.013Z,97889.69
2023-03-24T08:05:23.273Z,97893.75
2023-03-24T08:07:55.712Z,97895.66
2023-03-24T08:10:24.998Z,97896.72
2023-03-24T08:12:52.059Z,97905.38
2023-03-24T08:15:19.117Z,97911.94
2023-03-24T08:17:45.847Z,97909.75
2023-03-24T08:20:15.698Z,97908.69
2023-03-24T08:22:44.464Z,97909.78
2023-03-24T08:25:12.918Z,97913.06
2023-03-24T08:27:40.848Z,97918.13
2023-03-24T08:30:10.466Z,97915.47
2023-03-24T08:32:37.888Z,97923.84
2023-03-24T08:35:05.187Z,97925.44
2023-03-24T08:37:32.080Z,97919.78
2023-03-24T08:39:58.992Z,97920.34
2023-03-24T08:42:26.012Z,97936.72
2023-03-24T08:44:53.184Z,97941.41
2023-03-24T08:47:19.717Z,97920.84
2023-03-24T08:49:46.354Z,97942.50
2023-03-24T08:52:12.894Z,97944.84
2023-03-24T08:54:39.406Z,97941.72
2023-03-24T08:57:06.177Z,97953.47
2023-03-24T08:59:32.747Z,97938.34
2023-03-24T09:01:59.334Z,97925.94
2023-03-24T09:04:26.261Z,97933.56
2023-03-24T09:06:53.620Z,97922.19
2023-03-24T09:09:20.360Z,97910.84
2023-03-24T09:11:48.679Z,97910.03
2023-03-24T09:14:15.426Z,97893.81
2023-03-24T09:16:43.977Z,97895.72
2023-03-24T09:19:11.084Z,97907.59
2023-03-24T09:21:38.409Z,97901.16
2023-03-24T09:24:05.227Z,97901.97
2023-03-24T09:26:33.882Z,97905.53
2023-03-24T09:29:00.395Z,97900.19
2023-03-24T09:31:26.931Z,97897.50
2023-03-24T09:33:53.449Z,97902.66
2023-03-24T09:36:20.040Z,97900.22
2023-03-24T09:38:46.690Z,97894.28
2023-03-24T09:41:25.712Z,97900.72
2023-03-24T09:44:09.910Z,97902.91
2023-03-24T09:46:51.931Z,97908.56
2023-03-24T09:49:29.444Z,97909.66
2023-03-24T09:52:04.412Z,97923.97
2023-03-24T09:54:46.249Z,97930.41
2023-03-24T09:57:22.148Z,97911.00
2023-03-24T09:59:48.691Z,97920.72
2023-03-24T10:02:20.721Z,97940.72
2023-03-24T10:04:48.421Z,97946.66
2023-03-24T10:07:43.254Z,97960.66
2023-03-24T10:10:32.093Z,97969.84
2023-03-24T10:13:06.937Z,97979.56
2023-03-24T10:15:43.984Z,97989.78
2023-03-24T10:18:48.662Z,97997.63
2023-03-24T10:21:37.155Z,98015.16
2023-03-24T10:24:27.556Z,98023.78
2023-03-24T10:27:03.904Z,98023.75
2023-03-24T10:29:34.499Z,98024.00
2023-03-24T10:32:06.730Z,98021.13
2023-03-24T10:34:34.673Z,98014.66
2023-03-24T10:37:04.124Z,98017.38
2023-03-24T10:39:41.940Z,97999.63
2023-03-24T10:42:18.459Z,97988.06
2023-03-24T10:44:48.290Z,97997.53
2023-03-24T10:47:18.015Z,97999.69
2023-03-24T10:50:15.359Z,97994.00
2023-03-24T10:52:46.520Z,97997.78
2023-03-24T10:55:19.343Z,98012.34
2023-03-24T10:57:49.907Z,98020.75
2023-03-24T11:00:19.632Z,98011.28
2023-03-24T11:02:56.664Z,98001.03
2023-03-24T11:05:30.528Z,98006.44
2023-03-24T11:08:10.498Z,97987.00
2023-03-24T11:10:37.033Z,97982.41
2023-03-24T11:13:05.162Z,97988.88
2023-03-24T11:15:34.200Z,97990.78
2023-03-24T11:18:12.453Z,97989.41
2023-03-24T11:20:43.521Z,97997.53
2023-03-24T11:23:16.631Z,97994.81
2023-03-24T11:25:47.688Z,98001.28
2023-03-24T11:28:18.396Z,97988.09
2023-03-24T11:30:51.325Z,97977.28
2023-03-24T11:33:34.940Z,97948.97
2023-03-24T11:36:26.239Z,97941.44
2023-03-24T11:39:01.298Z,97948.44
2023-03-24T11:41:28.059Z,97959.22
2023-03-24T11:44:18.034Z,97945.22
2023-03-24T11:46:49.067Z,97944.13
2023-03-24T11:49:20.103Z,97942.75
2023-03-24T11:51:50.786Z,97943.06
2023-03-24T11:54:20.234Z,97944.66
2023-03-24T11:56:51.792Z,97944.41
2023-03-24T11:59:58.232Z,97944.66
2023-03-24T12:02:47.966Z,97942.78
2023-03-24T12:05:23.758Z,97945.19
2023-03-24T12:08:14.859Z,97936.53
2023-03-24T12:10:53.284Z,97950.03
2023-03-24T12:13:49.622Z,97960.81
2023-03-24T12:16:21.894Z,97963.22
2023-03-24T12:19:19.380Z,97973.47
2023-03-24T12:22:01.157Z,97994.56
2023-03-24T12:24:38.800Z,97998.84
2023-03-24T12:27:05.698Z,97999.13
2023-03-24T12:30:13.589Z,98007.75
2023-03-24T12:33:11.471Z,98008.28
2023-03-24T12:36:02.041Z,98009.06
2023-03-24T12:38:49.711Z,97999.41
2023-03-24T12:41:29.138Z,98001.56
2023-03-24T12:44:07.594Z,97999.66
2023-03-24T12:46:50.429Z,98001.28
2023-03-24T12:49:36.641Z,97987.78
2023-03-24T12:52:19.481Z,97987.22
2023-03-24T12:54:55.122Z,97980.22
2023-03-24T12:57:27.183Z,97987.22
2023-03-24T13:00:00.831Z,97986.41
2023-03-24T13:02:34.197Z,97976.44
2023-03-24T13:05:05.343Z,97980.22
2023-03-24T13:07:43.795Z,97969.97
2023-03-24T13:10:13.865Z,97972.13
2023-03-24T13:12:54.974Z,97969.97
2023-03-24T13:15:35.475Z,97970.56
2023-03-24T13:18:26.972Z,97977.03
2023-03-24T13:21:00.144Z,97975.94
2023-03-24T13:23:26.590Z,97988.91
2023-03-24T13:26:05.034Z,97982.41
2023-03-24T13:28:38.748Z,97982.91
2023-03-24T13:31:09.223Z,97978.06
2023-03-24T13:33:38.944Z,97990.22
2023-03-24T13:36:26.595Z,97975.38
2023-03-24T13:38:57.797Z,97978.06
2023-03-24T13:41:30.696Z,97995.06
2023-03-24T13:44:06.172Z,97995.06
2023-03-24T13:46:36.978Z,98000.47
2023-03-24T13:49:06.998Z,98011.53
2023-03-24T13:51:41.020Z,98010.47
2023-03-24T13:54:16.929Z,97999.97
2023-03-24T13:56:49.352Z,97999.97
2023-03-24T13:59:24.583Z,97999.69
2023-03-24T14:02:15.883Z,98006.41
2023-03-24T14:04:48.269Z,98016.41
2023-03-24T14:07:39.131Z,98014.25
2023-03-24T14:10:39.858Z,97988.06
2023-03-24T14:13:46.137Z,97985.38
2023-03-24T14:16:49.107Z,97983.47
2023-03-24T14:19:23.504Z,97971.06
2023-03-24T14:22:22.488Z,97982.63
2023-03-24T14:25:15.265Z,97986.16
2023-03-24T14:27:47.349Z,97962.97
2023-03-24T14:30:25.156Z,97961.34
2023-03-24T14:33:02.626Z,97972.97
2023-03-24T14:35:46.649Z,97982.09
2023-03-24T14:38:16.270Z,97985.56
2023-03-24T14:41:08.165Z,97975.34
2023-03-24T14:43:41.486Z,97982.34
2023-03-24T14:46:20.310Z,97972.13
2023-03-24T14:48:56.457Z,97966.16
2023-03-24T14:51:25.774Z,97976.91
2023-03-24T14:53:57.953Z,97966.94
2023-03-24T14:56:29.470Z,97952.69
2023-03-24T14:59:08.718Z,97949.44
2023-03-24T15:01:35.651Z,97956.16
2023-03-24T15:04:08.992Z,97963.47
2023-03-24T15:06:46.870Z,97976.94
2023-03-24T15:09:16.173Z,97975.59
2023-03-24T15:11:44.623Z,97985.31
2023-03-24T15:14:21.353Z,97988.50
2023-03-24T15:16:58.059Z,97985.00
2023-03-24T15:19:30.881Z,97994.72
2023-03-24T15:22:02.911Z,97989.63
2023-03-24T15:24:33.048Z,97992.03
2023-03-24T15:27:08.501Z,97984.47
2023-03-24T15:29:43.290Z,97990.38
2023-03-24T15:32:19.288Z,97997.09
2023-03-24T15:34:56.568Z,98019.94
2023-03-24T15:37:24.644Z,98022.81
2023-03-24T15:39:59.178Z,98016.00
2023-03-24T15:42:33.272Z,97996.56
2023-03-24T15:45:10.712Z,97996.03
2023-03-24T15:47:41.260Z,98011.13
2023-03-24T15:50:40.918Z,98010.34
2023-03-24T15:53:25.107Z,98017.72
2023-03-24T15:56:06.877Z,98017.84
2023-03-24T15:58:46.397Z,98021.91
2023-03-24T16:01:17.189Z,98022.75
2023-03-24T16:03:48.405Z,98003.06
2023-03-24T16:06:16.543Z,97991.75
2023-03-24T16:08:43.886Z,97998.97
2023-03-24T16:11:14.817Z,97985.50
2023-03-24T16:13:44.997Z,97986.59
2023-03-24T16:16:14.421Z,97975.25
2023-03-24T16:18:44.014Z,97961.75
2023-03-24T16:21:10.531Z,97956.91
2023-03-24T16:23:37.430Z,97966.59
2023-03-24T16:26:04.193Z,97952.03
2023-03-24T16:28:32.807Z,97967.63
2023-03-24T16:31:03.558Z,97976.41
2023-03-24T16:33:33.342Z,97973.75
2023-03-24T16:36:00.971Z,97976.69
2023-03-24T16:38:27.689Z,97961.81
2023-03-24T16:40:56.795Z,97978.25
2023-03-24T16:43:24.004Z,97986.81
2023-03-24T16:45:51.463Z,97970.81
2023-03-24T16:48:18.143Z,97990.97
2023-03-24T16:50:50.304Z,97987.16
2023-03-24T16:53:18.115Z,97994.41
2023-03-24T16:55:45.204Z,97996.53
2023-03-24T16:58:16.484Z,97987.59
2023-03-24T17:00:43.991Z,97977.31
2023-03-24T17:03:10.791Z,97970.22
2023-03-24T17:05:43.891Z,97961.94
2023-03-24T17:08:10.536Z,97977.75
2023-03-24T17:10:37.354Z,98001.94
2023-03-24T17:13:03.879Z,97999.34
2023-03-24T17:15:33.273Z,98002.88
2023-03-24T17:18:00.933Z,98012.59
2023-03-24T17:20:29.625Z,98007.75
2023-03-24T17:22:59.524Z,98003.72
2023-03-24T17:25:29.243Z,97999.38
2023-03-24T17:27:57.291Z,98005.34
2023-03-24T17:30:25.818Z,98004.88
2023-03-24T17:32:54.803Z,98002.75
2023-03-24T17:35:23.820Z,97997.44
2023-03-24T17:37:53.864Z,98000.63
2023-03-24T17:40:20.754Z,98003.09
2023-03-24T17:42:47.344Z,97998.50
2023-03-24T17:45:16.923Z,98014.09
2023-03-24T17:47:43.757Z,98004.94
2023-03-24T17:50:11.216Z,98009.78
2023-03-24T17:52:46.232Z,98015.75
2023-03-24T17:55:15.463Z,98023.00
2023-03-24T17:57:43.014Z,98032.16
2023-03-24T18:00:12.009Z,98041.56
2023-03-24T18:02:39.835Z,98035.00
2023-03-24T18:05:07.718Z,98037.44
2023-03-24T18:07:35.189Z,98035.31
2023-03-24T18:10:02.109Z,98043.94
2023-03-24T18:12:28.848Z,98042.53
2023-03-24T18:14:55.438Z,98051.63
2023-03-24T18:17:22.284Z,98052.97
2023-03-24T18:19:50.223Z,98051.69
2023-03-24T18:22:17.318Z,98047.63
2023-03-24T18:24:43.809Z,98049.47
2023-03-24T18:27:10.447Z,98046.84
2023-03-24T18:29:37.735Z,98049.63
2023-03-24T18:32:05.276Z,98051.72
2023-03-24T18:34:32.302Z,98049.47
2023-03-24T18:36:59.415Z,98053.47
2023-03-24T18:39:25.897Z,98063.63
2023-03-24T18:41:53.841Z,98066.28
2023-03-24T18:44:21.694Z,98069.13
2023-03-24T18:46:49.036Z,98078.44
2023-03-24T18:49:15.748Z,98076.81
2023-03-24T18:51:43.567Z,98076.03
2023-03-24T18:54:11.995Z,98084.94
2023-03-24T18:56:38.622Z,98086.22
2023-03-24T18:59:05.746Z,98080.47
2023-03-24T19:01:33.400Z,98090.09
2023-03-24T19:04:00.225Z,98090.50
2023-03-24T19:06:30.940Z,98089.13
2023-03-24T19:08:59.134Z,98085.91
2023-03-24T19:11:26.650Z,98085.75
2023-03-24T19:13:55.900Z,98088.03
2023-03-24T19:16:22.711Z,98086.63
2023-03-24T19:18:50.495Z,98085.97
2023-03-24T19:21:17.776Z,98087.38
2023-03-24T19:23:46.809Z,98080.41
2023-03-24T19:26:14.010Z,98091.94
2023-03-24T19:28:41.289Z,98081.59
2023-03-24T19:31:10.705Z,98086.41
2023-03-24T19:33:38.033Z,98094.53
2023-03-24T19:36:06.358Z,98080.81
2023-03-24T19:38:33.282Z,98086.63
2023-03-24T19:41:05.730Z,98095.00
2023-03-24T19:43:34.509Z,98095.88
2023-03-24T19:46:01.017Z,98097.34
2023-03-24T19:48:27.558Z,98097.03
2023-03-24T19:50:55.105Z,98095.66
2023-03-24T19:53:23.568Z,98098.06
2023-03-24T19:55:50.875Z,98093.03
2023-03-24T19:58:17.733Z,98098.06
2023-03-24T20:00:44.223Z,98103.00
2023-03-24T20:03:11.082Z,98105.25
2023-03-24T20:05:37.709Z,98098.25
2023-03-24T20:08:04.547Z,98112.56
2023-03-24T20:10:31.345Z,98109.97
2023-03-24T20:12:57.894Z,98115.00
2023-03-24T20:15:24.370Z,98114.41
2023-03-24T20:17:51.423Z,98116.19
2023-03-24T20:20:17.950Z,98124.13
2023-03-24T20:22:45.894Z,98132.75
2023-03-24T20:25:15.545Z,98138.44
2023-03-24T20:27:45.154Z,98133.78
2023-03-24T20:30:12.962Z,98133.25
2023-03-24T20:32:39.448Z,98136.44
2023-03-24T20:35:06.471Z,98139.38
2023-03-24T20:37:35.654Z,98140.50
2023-03-24T20:40:05.328Z,98135.63
2023-03-24T20:42:31.967Z,98142.88
2023-03-24T20:44:58.610Z,98152.72
2023-03-24T20:47:25.401Z,98153.94
2023-03-24T20:49:51.873Z,98153.13
2023-03-24T20:52:20.685Z,98157.19
2023-03-24T20:54:47.313Z,98153.94
2023-03-24T20:57:13.877Z,98152.38
2023-03-24T20:59:40.582Z,98154.06
2023-03-24T21:02:09.996Z,98150.97
2023-03-24T21:04:36.710Z,98145.72
2023-03-24T21:07:03.284Z,98146.22
2023-03-24T21:09:29.802Z,98140.34
2023-03-24T21:11:56.296Z,98149.78
2023-03-24T21:14:23.102Z,98139.72
2023-03-24T21:16:50.056Z,98141.50
2023-03-24T21:19:16.703Z,98153.03
2023-03-24T21:21:44.639Z,98166.50
2023-03-24T21:24:13.245Z,98169.69
2023-03-24T21:26:39.998Z,98170.56
2023-03-24T21:29:10.410Z,98180.00
2023-03-24T21:31:37.515Z,98200.13
2023-03-24T21:34:04.076Z,98191.44
2023-03-24T21:36:31.018Z,98187.47
2023-03-24T21:38:58.494Z,98178.75
2023-03-24T21:41:25.075Z,98198.69
2023-03-24T21:43:54.082Z,98199.88
2023-03-24T21:46:22.265Z,98200.31
2023-03-24T21:48:51.912Z,98199.28
2023-03-24T21:51:25.243Z,98197.19
2023-03-24T21:54:03.718Z,98203.53
2023-03-24T21:56:34.270Z,98189.22
2023-03-24T21:59:01.312Z,98181.06
2023-03-24T22:01:27.912Z,98178.97
2023-03-24T22:03:54.756Z,98174.91
2023-03-24T22:06:22.822Z,98172.78
2023-03-24T22:08:53.103Z,98174.31
2023-03-24T22:11:19.844Z,98166.75
2023-03-24T22:13:46.679Z,98164.97
2023-03-24T22:16:13.615Z,98168.94
2023-03-24T22:18:40.861Z,98179.97
2023-03-24T22:21:09.608Z,98182.38
2023-03-24T22:23:39.414Z,98191.53
2023-03-24T22:26:09.239Z,98198.28
2023-03-24T22:28:36.404Z,98214.13
2023-03-24T22:31:08.268Z,98204.47
2023-03-24T22:33:35.468Z,98195.28
2023-03-24T22:36:02.797Z,98198.00
2023-03-24T22:38:30.221Z,98187.75
2023-03-24T22:41:01.657Z,98194.44
2023-03-24T22:43:29.021Z,98198.91
2023-03-24T22:45:55.550Z,98203.56
2023-03-24T22:48:22.812Z,98201.97
2023-03-24T22:50:49.816Z,98201.66
2023-03-24T22:53:16.419Z,98212.88
2023-03-24T22:55:44.736Z,98202.00
2023-03-24T22:58:15.453Z,98200.88
2023-03-24T23:00:43.947Z,98209.44
2023-03-24T23:03:10.700Z,98211.97
2023-03-24T23:05:45.569Z,98202.38
2023-03-24T23:08:14.451Z,98201.72
2023-03-24T23:10:43.527Z,98205.97
2023-03-24T23:13:10.693Z,98203.94
2023-03-24T23:15:38.576Z,98213.28
2023-03-24T23:18:05.315Z,98205.63
2023-03-24T23:20:32.023Z,98215.25
2023-03-24T23:22:58.641Z,98210.69
2023-03-24T23:25:25.969Z,98228.09
2023-03-24T23:27:52.536Z,98232.66
2023-03-24T23:30:19.705Z,98218.66
2023-03-24T23:32:46.791Z,98229.31
2023-03-24T23:35:14.127Z,98220.13
2023-03-24T23:37:40.682Z,98218.38
2023-03-24T23:40:13.016Z,98223.84
2023-03-24T23:42:41.410Z,98224.78
2023-03-24T23:45:09.837Z,98221.59
2023-03-24T23:47:36.717Z,98225.88
2023-03-24T23:50:06.322Z,98228.03
2023-03-24T23:52:33.494Z,98232.50
2023-03-24T23:55:02.049Z,98237.38
2023-03-24T23:57:29.122Z,98233.78
2023-03-24T23:59:55.667Z,98231.63
